Time;durP1;ratioP1;P1;durP2;ratioP2;P2;SDS_P1;SDS_P2;PMS_P1;PMS_P2;Temp;Humidity;BMP_temperature;BMP_pressure;BME280_temperature;BME280_humidity;BME280_pressure;Samples;Min_cycle;Max_cycle;Signal;HPM_P1;HPM_P2
2023/03/05 00:02:07;;;;;;;22.53;11.87;;;6.80;99.90;;;;;;7389315;19;20150;-82
2023/03/05 00:04:33;;;;;;;21.03;10.13;;;6.90;99.90;;;;;;7389717;19;20190;-81
2023/03/05 00:06:58;;;;;;;22.83;10.87;;;7.00;99.90;;;;;;7390208;19;20142;-82
2023/03/05 00:09:26;;;;;;;22.50;11.23;;;6.90;99.90;;;;;;7390469;19;20582;-81
2023/03/05 00:11:52;;;;;;;23.87;11.23;;;6.80;99.90;;;;;;7388260;19;20142;-81
2023/03/05 00:14:18;;;;;;;17.63;10.40;;;6.80;99.90;;;;;;7391208;19;20150;-81
2023/03/05 00:16:44;;;;;;;18.83;9.83;;;6.90;99.90;;;;;;7389724;19;20177;-82
2023/03/05 00:19:10;;;;;;;18.83;10.50;;;6.80;99.90;;;;;;7389328;19;20233;-82
2023/03/05 00:21:40;;;;;;;23.00;11.00;;;6.80;99.90;;;;;;7389022;19;20142;-83
2023/03/05 00:24:12;;;;;;;22.27;11.57;;;6.80;99.90;;;;;;7389138;19;20607;-82
2023/03/05 00:26:38;;;;;;;23.87;11.07;;;6.80;99.90;;;;;;7388666;19;20651;-83
2023/03/05 00:29:05;;;;;;;22.03;11.20;;;6.80;99.90;;;;;;7389797;19;20233;-82
2023/03/05 00:31:33;;;;;;;22.60;11.37;;;6.90;99.90;;;;;;7387565;19;20146;-82
2023/03/05 00:34:05;;;;;;;21.10;11.47;;;6.90;99.90;;;;;;7390605;19;20141;-80
2023/03/05 00:36:32;;;;;;;17.63;10.50;;;6.90;99.90;;;;;;7388580;19;20135;-81
2023/03/05 00:38:58;;;;;;;20.77;10.27;;;6.80;99.90;;;;;;7385693;19;20159;-82
2023/03/05 00:41:23;;;;;;;20.70;11.33;;;6.90;99.90;;;;;;7386144;19;20465;-82
2023/03/05 00:43:49;;;;;;;16.77;9.87;;;6.90;99.90;;;;;;7389428;19;20154;-83
2023/03/05 00:46:15;;;;;;;20.93;11.20;;;6.80;99.90;;;;;;7388096;19;20491;-82
2023/03/05 00:48:41;;;;;;;20.57;10.60;;;6.80;99.90;;;;;;7390259;19;20218;-81
2023/03/05 00:51:08;;;;;;;16.57;9.50;;;6.80;99.90;;;;;;7388369;19;20565;-83
2023/03/05 00:53:34;;;;;;;16.53;9.30;;;6.90;99.90;;;;;;7388854;19;20242;-82
2023/03/05 00:55:59;;;;;;;18.07;10.13;;;6.90;99.90;;;;;;7389114;19;20138;-82
2023/03/05 00:58:25;;;;;;;16.83;9.60;;;6.90;99.90;;;;;;7389973;19;20464;-84
2023/03/05 01:00:51;;;;;;;17.07;9.80;;;6.90;99.90;;;;;;7388005;19;21986;-82
2023/03/05 01:03:17;;;;;;;17.33;10.00;;;6.90;99.90;;;;;;7387531;19;20178;-83
2023/03/05 01:05:44;;;;;;;20.53;10.03;;;6.80;99.90;;;;;;7388755;19;20519;-83
2023/03/05 01:08:09;;;;;;;19.13;9.73;;;6.80;99.90;;;;;;7390342;19;20146;-81
2023/03/05 01:10:35;;;;;;;19.67;10.90;;;6.90;99.90;;;;;;7387085;19;20146;-82
2023/03/05 01:13:01;;;;;;;19.80;11.03;;;6.80;99.90;;;;;;7387670;19;20134;-82
2023/03/05 01:15:27;;;;;;;22.60;10.40;;;6.80;99.90;;;;;;7387013;19;20135;-83
2023/03/05 01:17:53;;;;;;;23.40;11.50;;;6.70;99.90;;;;;;7388592;19;20150;-82
2023/03/05 01:20:20;;;;;;;22.90;11.30;;;6.70;99.90;;;;;;7386195;19;20169;-82
2023/03/05 01:22:46;;;;;;;24.30;11.97;;;6.70;99.90;;;;;;7388679;19;20159;-83
2023/03/05 01:25:13;;;;;;;24.87;12.37;;;6.50;99.90;;;;;;7386847;19;20683;-82
2023/03/05 01:27:39;;;;;;;20.03;11.37;;;6.20;99.90;;;;;;7386614;19;20154;-82
2023/03/05 01:30:06;;;;;;;22.20;11.37;;;5.80;99.90;;;;;;7388332;19;20803;-81
2023/03/05 01:32:33;;;;;;;25.50;11.70;;;5.90;99.90;;;;;;7387050;19;20256;-81
2023/03/05 01:35:04;;;;;;;19.30;10.97;;;6.10;99.90;;;;;;7387095;19;20216;-82
2023/03/05 01:37:30;;;;;;;20.83;10.93;;;6.50;99.90;;;;;;7386841;19;20138;-82
2023/03/05 01:39:56;;;;;;;21.30;10.97;;;6.70;99.90;;;;;;7383026;19;20135;-83
2023/03/05 01:42:23;;;;;;;20.43;10.37;;;6.80;99.90;;;;;;7384920;19;20170;-83
2023/03/05 01:45:04;;;;;;;17.63;10.00;;;6.90;99.90;;;;;;7388136;19;20166;-82
2023/03/05 01:47:30;;;;;;;13.73;8.10;;;6.90;99.90;;;;;;7379929;19;20140;-82
2023/03/05 01:49:57;;;;;;;15.80;8.47;;;6.90;99.90;;;;;;7386094;19;20540;-82
2023/03/05 01:52:25;;;;;;;16.67;9.23;;;6.80;99.90;;;;;;7386403;19;20161;-81
2023/03/05 01:54:57;;;;;;;21.20;9.67;;;6.80;99.90;;;;;;7387494;19;20138;-82
2023/03/05 01:57:37;;;;;;;21.93;10.97;;;6.90;99.90;;;;;;7388141;19;20153;-82
2023/03/05 02:00:11;;;;;;;22.00;11.23;;;6.80;99.90;;;;;;7385944;19;20135;-77
2023/03/05 02:02:37;;;;;;;19.27;10.57;;;6.80;99.90;;;;;;7390035;19;20634;-77
2023/03/05 02:05:08;;;;;;;20.23;11.03;;;6.90;99.90;;;;;;7389952;19;20142;-77
2023/03/05 02:07:36;;;;;;;21.30;11.83;;;6.80;99.90;;;;;;7394229;19;20139;-77
2023/03/05 02:10:14;;;;;;;20.37;10.53;;;6.70;99.90;;;;;;7394592;19;20538;-78
2023/03/05 02:12:41;;;;;;;18.93;9.97;;;6.30;99.90;;;;;;7396095;19;20194;-78
2023/03/05 02:15:07;;;;;;;22.23;11.00;;;6.60;99.90;;;;;;7392736;19;20219;-78
2023/03/05 02:17:33;;;;;;;21.17;10.73;;;6.70;99.90;;;;;;7395479;19;20157;-78
2023/03/05 02:20:13;;;;;;;18.07;9.57;;;6.90;99.90;;;;;;7392541;19;20657;-79
2023/03/05 02:22:39;;;;;;;15.13;9.37;;;6.80;99.90;;;;;;7393082;19;20485;-78
2023/03/05 02:25:20;;;;;;;16.47;8.97;;;6.90;99.90;;;;;;7394351;19;20138;-78
2023/03/05 02:27:54;;;;;;;17.20;8.77;;;6.80;99.90;;;;;;7393943;19;20177;-79
2023/03/05 02:30:19;;;;;;;15.57;8.83;;;6.80;99.90;;;;;;7391988;19;20150;-78
2023/03/05 02:32:46;;;;;;;15.33;8.90;;;6.80;99.90;;;;;;7393788;19;20150;-78
2023/03/05 02:35:11;;;;;;;16.63;8.57;;;6.80;99.90;;;;;;7393266;19;20145;-78
2023/03/05 02:37:37;;;;;;;15.03;8.43;;;6.80;99.90;;;;;;7394383;19;20433;-78
2023/03/05 02:40:04;;;;;;;20.03;9.50;;;6.80;99.90;;;;;;7391553;19;20150;-77
2023/03/05 02:42:32;;;;;;;16.93;8.80;;;6.80;99.90;;;;;;7391113;19;20510;-79
2023/03/05 02:44:59;;;;;;;17.23;9.50;;;6.80;99.90;;;;;;7392680;19;20147;-77
2023/03/05 02:47:26;;;;;;;16.30;8.40;;;6.90;99.90;;;;;;7393376;19;20135;-80
2023/03/05 02:49:53;;;;;;;16.47;8.47;;;6.90;99.90;;;;;;7391649;19;20259;-78
2023/03/05 02:52:21;;;;;;;18.93;7.87;;;6.90;99.90;;;;;;7392476;19;20161;-78
2023/03/05 02:54:48;;;;;;;18.10;9.30;;;6.80;99.90;;;;;;7392497;19;20143;-78
2023/03/05 02:57:15;;;;;;;18.23;9.80;;;6.80;99.90;;;;;;7394001;19;20149;-78
2023/03/05 02:59:41;;;;;;;22.83;11.20;;;6.60;99.90;;;;;;7392750;19;20170;-78
2023/03/05 03:02:06;;;;;;;23.07;10.53;;;6.60;99.90;;;;;;7392811;19;20178;-78
2023/03/05 03:04:32;;;;;;;19.30;10.50;;;6.40;99.90;;;;;;7389540;19;20154;-78
2023/03/05 03:07:01;;;;;;;21.77;11.57;;;6.40;99.90;;;;;;7390889;19;20170;-78
2023/03/05 03:09:28;;;;;;;19.97;9.80;;;6.50;99.90;;;;;;7391383;19;20173;-79
2023/03/05 03:11:53;;;;;;;21.20;10.60;;;6.60;99.90;;;;;;7394361;19;20142;-78
2023/03/05 03:14:20;;;;;;;23.43;11.20;;;6.70;99.90;;;;;;7389617;19;20142;-78
2023/03/05 03:16:46;;;;;;;19.80;11.07;;;6.70;99.90;;;;;;7392585;19;20158;-78
2023/03/05 03:19:12;;;;;;;25.63;12.03;;;6.70;99.90;;;;;;7391770;19;20636;-78
2023/03/05 03:21:38;;;;;;;21.97;9.90;;;6.80;99.90;;;;;;7392890;19;20171;-77
2023/03/05 03:24:04;;;;;;;20.87;9.83;;;6.70;99.90;;;;;;7390512;19;20134;-77
2023/03/05 03:26:30;;;;;;;19.97;9.93;;;6.70;99.90;;;;;;7391980;19;20151;-78
2023/03/05 03:28:56;;;;;;;16.67;9.03;;;6.70;99.90;;;;;;7392014;19;20148;-77
2023/03/05 03:31:22;;;;;;;18.63;8.93;;;6.70;99.90;;;;;;7388155;19;20174;-78
2023/03/05 03:33:48;;;;;;;17.07;8.97;;;6.80;99.90;;;;;;7389562;19;20471;-78
2023/03/05 03:36:14;;;;;;;16.73;7.73;;;6.70;99.90;;;;;;7390849;19;20602;-78
2023/03/05 03:38:40;;;;;;;14.53;7.63;;;6.70;99.90;;;;;;7391249;19;20154;-77
2023/03/05 03:41:07;;;;;;;14.13;7.13;;;6.90;99.90;;;;;;7387165;19;20143;-78
2023/03/05 03:43:33;;;;;;;16.37;7.70;;;6.70;99.90;;;;;;7392625;19;20493;-76
2023/03/05 03:45:59;;;;;;;13.83;7.40;;;6.40;99.90;;;;;;7389871;19;20161;-78
2023/03/05 03:48:25;;;;;;;15.20;7.37;;;6.60;99.90;;;;;;7390292;19;20139;-78
2023/03/05 03:50:51;;;;;;;14.07;7.07;;;6.60;99.90;;;;;;7391608;19;20168;-77
2023/03/05 03:53:16;;;;;;;14.17;7.50;;;6.60;99.90;;;;;;7389570;19;20595;-78
2023/03/05 03:55:45;;;;;;;13.27;7.10;;;6.70;99.90;;;;;;7392130;19;20455;-78
2023/03/05 03:58:11;;;;;;;12.33;6.67;;;6.70;99.90;;;;;;7386208;19;20146;-78
2023/03/05 04:00:37;;;;;;;13.90;6.30;;;6.70;99.90;;;;;;7390116;19;20261;-77
2023/03/05 04:03:03;;;;;;;13.63;6.67;;;6.80;99.90;;;;;;7389454;19;20178;-78
2023/03/05 04:05:29;;;;;;;14.33;7.07;;;6.70;99.90;;;;;;7391441;19;20246;-77
2023/03/05 04:07:57;;;;;;;12.57;6.60;;;6.70;99.90;;;;;;7390183;19;20151;-78
2023/03/05 04:10:23;;;;;;;17.23;7.10;;;6.80;99.90;;;;;;7389513;19;20247;-78
2023/03/05 04:12:49;;;;;;;10.90;6.00;;;6.90;99.90;;;;;;7389807;19;20150;-78
2023/03/05 04:15:15;;;;;;;16.73;7.30;;;6.80;99.90;;;;;;7390012;19;20492;-77
2023/03/05 04:17:40;;;;;;;13.60;7.23;;;6.80;99.90;;;;;;7390651;19;20163;-77
2023/03/05 04:20:09;;;;;;;14.20;7.13;;;6.90;99.90;;;;;;7388768;19;20147;-78
2023/03/05 04:22:36;;;;;;;14.70;7.23;;;6.80;99.90;;;;;;7389409;19;20158;-78
2023/03/05 04:25:05;;;;;;;15.03;7.00;;;6.80;99.90;;;;;;7388979;19;20147;-77
2023/03/05 04:27:36;;;;;;;16.63;7.60;;;6.80;99.90;;;;;;7389288;19;20162;-78
2023/03/05 04:30:02;;;;;;;14.83;7.43;;;6.80;99.90;;;;;;7390260;19;20130;-77
2023/03/05 04:32:28;;;;;;;13.33;6.17;;;6.80;99.90;;;;;;7387328;19;20147;-78
2023/03/05 04:34:56;;;;;;;14.07;6.87;;;6.80;99.90;;;;;;7390374;19;20143;-78
2023/03/05 04:37:22;;;;;;;13.17;6.83;;;6.70;99.90;;;;;;7389463;19;20147;-77
2023/03/05 04:39:48;;;;;;;11.03;6.17;;;6.70;99.90;;;;;;7388561;19;20276;-78
2023/03/05 04:42:14;;;;;;;13.20;6.93;;;6.70;99.90;;;;;;7389122;19;20213;-77
2023/03/05 04:44:39;;;;;;;15.00;7.23;;;6.70;99.90;;;;;;7384409;19;20154;-77
2023/03/05 04:47:05;;;;;;;12.53;6.60;;;6.60;99.90;;;;;;7390118;19;20139;-77
2023/03/05 04:49:31;;;;;;;15.50;6.20;;;6.60;99.90;;;;;;7391113;19;20175;-78
2023/03/05 04:51:57;;;;;;;14.73;6.57;;;6.60;99.90;;;;;;7388944;19;20142;-78
2023/03/05 04:54:23;;;;;;;14.47;7.60;;;6.60;99.90;;;;;;7387413;19;20179;-77
2023/03/05 04:56:49;;;;;;;16.07;7.30;;;6.70;99.90;;;;;;7388570;19;20154;-77
2023/03/05 04:59:15;;;;;;;11.80;6.50;;;6.70;99.90;;;;;;7388391;19;20143;-77
2023/03/05 05:01:41;;;;;;;13.50;6.93;;;6.70;99.90;;;;;;7388862;19;20143;-77
2023/03/05 05:04:08;;;;;;;13.73;6.57;;;6.70;99.90;;;;;;7384292;19;20173;-77
2023/03/05 05:06:33;;;;;;;12.27;6.40;;;6.80;99.90;;;;;;7388785;19;20153;-78
2023/03/05 05:08:59;;;;;;;15.27;6.20;;;7.00;99.90;;;;;;7387665;19;20259;-78
2023/03/05 05:11:25;;;;;;;12.57;6.60;;;6.90;99.90;;;;;;7389422;19;20281;-78
2023/03/05 05:13:51;;;;;;;14.37;7.70;;;6.80;99.90;;;;;;7387626;19;20627;-78
2023/03/05 05:16:17;;;;;;;14.93;6.70;;;6.80;99.90;;;;;;7387855;19;20639;-78
2023/03/05 05:18:43;;;;;;;11.40;7.00;;;6.80;99.90;;;;;;7386593;19;20986;-78
2023/03/05 05:21:13;;;;;;;15.47;7.07;;;6.80;99.90;;;;;;7386326;19;20146;-78
2023/03/05 05:23:39;;;;;;;13.37;7.50;;;7.00;99.90;;;;;;7386539;19;20143;-78
2023/03/05 05:26:06;;;;;;;13.73;7.27;;;6.80;99.90;;;;;;7388333;19;20148;-78
2023/03/05 05:28:34;;;;;;;12.40;6.80;;;6.90;99.90;;;;;;7387975;19;20146;-78
2023/03/05 05:31:05;;;;;;;14.70;7.30;;;6.90;99.90;;;;;;7387843;19;20591;-78
2023/03/05 05:33:30;;;;;;;13.83;7.23;;;6.90;99.90;;;;;;7386125;19;20184;-78
2023/03/05 05:35:56;;;;;;;17.47;8.63;;;6.80;99.90;;;;;;7386937;19;20150;-78
2023/03/05 05:38:22;;;;;;;13.90;7.27;;;6.60;99.90;;;;;;7393715;19;20149;-78
2023/03/05 05:40:48;;;;;;;15.63;7.87;;;6.70;99.90;;;;;;7391270;19;20194;-78
2023/03/05 05:43:14;;;;;;;13.43;7.00;;;6.70;99.90;;;;;;7391379;19;20170;-77
2023/03/05 05:45:39;;;;;;;15.60;7.50;;;6.80;99.90;;;;;;7393730;19;20262;-78
2023/03/05 05:48:06;;;;;;;15.03;7.83;;;6.80;99.90;;;;;;7394860;19;20698;-77
2023/03/05 05:50:31;;;;;;;12.80;7.30;;;6.80;99.90;;;;;;7394776;19;20154;-78
2023/03/05 05:52:57;;;;;;;12.97;6.93;;;6.60;99.90;;;;;;7393388;19;20141;-78
2023/03/05 05:55:23;;;;;;;14.97;7.30;;;6.70;99.90;;;;;;7394128;19;20158;-77
2023/03/05 05:57:49;;;;;;;15.20;8.07;;;6.70;99.90;;;;;;7393051;19;20135;-78
2023/03/05 06:00:15;;;;;;;14.23;8.20;;;6.70;99.90;;;;;;7392897;19;20146;-78
2023/03/05 06:02:42;;;;;;;15.10;7.93;;;6.70;99.90;;;;;;7393142;19;20150;-77
2023/03/05 06:05:11;;;;;;;17.47;7.80;;;6.80;99.90;;;;;;7396603;19;20131;-77
2023/03/05 06:07:37;;;;;;;13.80;7.63;;;6.80;99.90;;;;;;7393224;19;20498;-78
2023/03/05 06:10:04;;;;;;;15.07;6.93;;;6.70;99.90;;;;;;7394987;19;20127;-78
2023/03/05 06:12:29;;;;;;;18.87;8.07;;;6.80;99.90;;;;;;7394430;19;20142;-77
2023/03/05 06:14:56;;;;;;;16.50;7.73;;;6.80;99.90;;;;;;7396231;19;20469;-78
2023/03/05 06:17:22;;;;;;;12.70;7.10;;;6.70;99.90;;;;;;7393921;19;20146;-77
2023/03/05 06:19:47;;;;;;;13.50;7.93;;;6.70;99.90;;;;;;7393812;19;20647;-77
2023/03/05 06:22:13;;;;;;;16.13;8.60;;;6.70;99.90;;;;;;7392788;19;20139;-77
2023/03/05 06:24:39;;;;;;;14.93;7.63;;;6.70;99.90;;;;;;7393573;19;20161;-77
2023/03/05 06:27:05;;;;;;;14.47;7.17;;;6.80;99.90;;;;;;7393615;19;20164;-77
2023/03/05 06:29:31;;;;;;;16.00;8.30;;;6.70;99.90;;;;;;7393265;19;20150;-77
2023/03/05 06:31:57;;;;;;;14.53;7.83;;;6.70;99.90;;;;;;7392240;19;20122;-77
2023/03/05 06:34:23;;;;;;;17.43;8.67;;;6.80;99.90;;;;;;7393498;19;20485;-77
2023/03/05 06:36:49;;;;;;;14.17;7.77;;;6.60;99.90;;;;;;7392522;19;20139;-77
2023/03/05 06:39:16;;;;;;;18.13;8.27;;;6.70;99.90;;;;;;7391111;19;20130;-77
2023/03/05 06:41:41;;;;;;;16.90;8.93;;;6.80;99.90;;;;;;7391719;19;20175;-77
2023/03/05 06:44:08;;;;;;;17.17;8.13;;;6.70;99.90;;;;;;7390463;19;20160;-77
2023/03/05 06:46:38;;;;;;;14.13;7.87;;;6.70;99.90;;;;;;7393562;19;20855;-78
2023/03/05 06:49:04;;;;;;;14.23;8.30;;;6.70;99.90;;;;;;7389581;19;20145;-79
2023/03/05 06:51:32;;;;;;;21.53;9.57;;;6.70;99.90;;;;;;7391769;19;20737;-76
2023/03/05 06:54:17;;;;;;;16.67;8.63;;;6.80;99.90;;;;;;7390427;19;20201;-79
2023/03/05 06:56:45;;;;;;;16.83;9.37;;;6.70;99.90;;;;;;7391956;19;20274;-78
2023/03/05 06:59:14;;;;;;;17.47;8.73;;;6.80;99.90;;;;;;7392249;19;20138;-77
2023/03/05 07:01:40;;;;;;;15.47;8.87;;;6.80;99.90;;;;;;7392136;19;20243;-77
2023/03/05 07:04:06;;;;;;;17.43;8.37;;;6.70;99.90;;;;;;7387410;19;20180;-75
2023/03/05 07:06:34;;;;;;;16.20;8.77;;;6.80;99.90;;;;;;7392110;19;20615;-78
2023/03/05 07:09:00;;;;;;;16.67;8.30;;;6.80;99.90;;;;;;7392361;19;20159;-77
2023/03/05 07:11:26;;;;;;;18.80;9.70;;;6.80;99.90;;;;;;7394246;19;20163;-78
2023/03/05 07:13:52;;;;;;;16.50;8.87;;;6.80;99.90;;;;;;7391373;19;20146;-78
2023/03/05 07:16:24;;;;;;;14.67;8.13;;;6.70;99.90;;;;;;7392529;19;20766;-77
2023/03/05 07:18:51;;;;;;;16.10;8.50;;;6.80;99.90;;;;;;7391526;19;20139;-78
2023/03/05 07:21:20;;;;;;;19.53;8.90;;;6.80;99.90;;;;;;7389575;19;20146;-77
2023/03/05 07:23:46;;;;;;;15.57;9.30;;;6.80;99.90;;;;;;7390550;19;20134;-78
2023/03/05 07:26:12;;;;;;;16.53;8.43;;;6.80;99.90;;;;;;7393506;19;20138;-78
2023/03/05 07:28:38;;;;;;;18.63;9.00;;;6.80;99.90;;;;;;7390246;19;20127;-78
2023/03/05 07:31:07;;;;;;;17.93;8.63;;;6.80;99.90;;;;;;7390416;19;20150;-79
2023/03/05 07:33:34;;;;;;;16.57;9.10;;;6.80;99.90;;;;;;7389294;19;20313;-78
2023/03/05 07:36:00;;;;;;;17.13;8.57;;;6.80;99.90;;;;;;7390671;19;20131;-79
2023/03/05 07:38:26;;;;;;;13.70;7.73;;;6.80;99.90;;;;;;7393305;19;20130;-80
2023/03/05 07:40:52;;;;;;;15.97;8.63;;;6.70;99.90;;;;;;7389424;19;20216;-77
2023/03/05 07:43:18;;;;;;;17.57;9.00;;;6.70;99.90;;;;;;7386569;19;20173;-76
2023/03/05 07:45:44;;;;;;;16.47;8.57;;;6.80;99.90;;;;;;7390616;19;20146;-77
2023/03/05 07:48:16;;;;;;;20.77;9.90;;;6.80;99.90;;;;;;7386926;19;20172;-76
2023/03/05 07:50:43;;;;;;;15.03;7.57;;;6.80;99.90;;;;;;7387621;19;20158;-76
2023/03/05 07:53:08;;;;;;;17.20;8.07;;;6.80;99.90;;;;;;7387083;19;20167;-78
2023/03/05 07:55:34;;;;;;;16.93;8.70;;;6.80;99.90;;;;;;7385769;19;20139;-77
2023/03/05 07:58:00;;;;;;;18.20;8.60;;;6.80;99.90;;;;;;7387741;19;20893;-77
2023/03/05 08:00:26;;;;;;;13.83;7.57;;;6.90;99.90;;;;;;7387111;19;20162;-77
2023/03/05 08:02:52;;;;;;;16.20;7.90;;;6.80;99.90;;;;;;7386320;19;20151;-78
2023/03/05 08:05:18;;;;;;;17.90;8.43;;;6.70;99.90;;;;;;7387328;19;20238;-78
2023/03/05 08:07:43;;;;;;;16.97;8.43;;;6.80;99.90;;;;;;7386036;19;20491;-76
2023/03/05 08:10:10;;;;;;;16.97;8.13;;;7.10;99.90;;;;;;7385958;19;20531;-77
2023/03/05 08:12:35;;;;;;;16.90;8.97;;;7.00;99.90;;;;;;7386697;19;20151;-77
2023/03/05 08:15:01;;;;;;;14.20;7.47;;;7.10;99.90;;;;;;7386936;19;20150;-77
2023/03/05 08:17:27;;;;;;;17.70;8.97;;;7.00;99.90;;;;;;7386767;19;20151;-77
2023/03/05 08:19:56;;;;;;;16.17;7.03;;;7.00;99.90;;;;;;7385809;19;20186;-77
2023/03/05 08:22:22;;;;;;;17.70;8.50;;;7.00;99.90;;;;;;7386013;19;20150;-77
2023/03/05 08:24:49;;;;;;;11.40;7.50;;;6.90;99.90;;;;;;7383928;19;20146;-77
2023/03/05 08:27:16;;;;;;;14.93;7.97;;;7.00;99.90;;;;;;7386294;19;20150;-77
2023/03/05 08:29:42;;;;;;;16.57;8.30;;;7.00;99.90;;;;;;7388189;19;20134;-77
2023/03/05 08:32:07;;;;;;;18.23;8.07;;;7.10;99.90;;;;;;7387043;19;20135;-75
2023/03/05 08:34:33;;;;;;;17.40;7.73;;;7.10;99.90;;;;;;7385731;19;20162;-75
2023/03/05 08:36:59;;;;;;;13.97;8.30;;;7.20;99.90;;;;;;7388802;19;20150;-76
2023/03/05 08:39:25;;;;;;;17.60;8.50;;;7.20;99.90;;;;;;7388078;19;20154;-74
2023/03/05 08:41:51;;;;;;;16.20;8.37;;;7.20;99.90;;;;;;7387936;19;20572;-75
2023/03/05 08:44:17;;;;;;;15.07;8.77;;;7.10;99.90;;;;;;7387703;19;20146;-76
2023/03/05 08:46:43;;;;;;;17.07;8.03;;;7.10;99.90;;;;;;7388600;19;20142;-75
2023/03/05 08:49:09;;;;;;;16.47;8.20;;;7.20;99.90;;;;;;7385342;19;20131;-74
2023/03/05 08:51:35;;;;;;;13.03;7.93;;;7.20;99.90;;;;;;7387331;19;20486;-76
2023/03/05 08:54:05;;;;;;;17.53;8.23;;;7.30;99.90;;;;;;7384733;19;20146;-73
2023/03/05 08:56:32;;;;;;;16.53;8.20;;;7.30;99.90;;;;;;7388712;19;20149;-72
2023/03/05 08:58:58;;;;;;;17.70;8.30;;;7.20;99.90;;;;;;7386895;19;20598;-75
2023/03/05 09:01:24;;;;;;;14.53;8.67;;;7.30;99.90;;;;;;7385068;19;20218;-75
2023/03/05 09:03:49;;;;;;;14.57;8.70;;;7.30;99.90;;;;;;7385378;19;20513;-74
2023/03/05 09:06:15;;;;;;;14.47;8.13;;;7.40;99.90;;;;;;7384952;19;20637;-73
2023/03/05 09:08:42;;;;;;;23.47;9.23;;;7.40;99.90;;;;;;7387772;19;20154;-73
2023/03/05 09:11:10;;;;;;;20.03;9.37;;;7.50;99.90;;;;;;7386933;19;20619;-73
2023/03/05 09:13:36;;;;;;;15.97;8.80;;;7.50;99.90;;;;;;7393576;19;20483;-74
2023/03/05 09:16:09;;;;;;;14.10;7.83;;;7.50;99.90;;;;;;7396155;19;20153;-75
2023/03/05 09:18:39;;;;;;;15.63;8.90;;;7.50;99.90;;;;;;7395282;19;20158;-75
2023/03/05 09:21:13;;;;;;;16.73;8.83;;;7.50;99.90;;;;;;7388888;19;20157;-76
2023/03/05 09:23:40;;;;;;;15.73;8.47;;;7.30;99.90;;;;;;7389256;19;20146;-75
2023/03/05 09:26:10;;;;;;;13.57;8.50;;;7.30;99.90;;;;;;7389163;19;20134;-75
2023/03/05 09:28:42;;;;;;;16.07;8.23;;;7.30;99.90;;;;;;7389333;19;20138;-75
2023/03/05 09:31:08;;;;;;;15.80;9.63;;;7.30;99.90;;;;;;7389709;19;20146;-74
2023/03/05 09:33:35;;;;;;;17.33;8.63;;;7.40;99.90;;;;;;7390080;19;20131;-74
2023/03/05 09:36:01;;;;;;;19.13;8.97;;;7.40;99.90;;;;;;7386052;19;20130;-76
2023/03/05 09:38:28;;;;;;;17.17;8.20;;;7.40;99.90;;;;;;7380354;19;20151;-75
2023/03/05 09:41:06;;;;;;;19.50;8.53;;;7.30;99.90;;;;;;7385997;19;20143;-75
2023/03/05 09:44:16;;;;;;;17.63;8.73;;;7.20;99.90;;;;;;7382690;19;20139;-75
2023/03/05 09:47:19;;;;;;;19.40;8.77;;;7.40;99.90;;;;;;7384765;19;20173;-76
2023/03/05 09:50:05;;;;;;;17.80;10.30;;;7.30;99.90;;;;;;7388990;19;20126;-74
2023/03/05 09:52:44;;;;;;;13.67;7.83;;;7.30;99.90;;;;;;7380110;19;20217;-76
2023/03/05 09:55:22;;;;;;;17.37;8.83;;;7.20;99.90;;;;;;7386488;19;20142;-76
2023/03/05 09:58:02;;;;;;;14.93;8.13;;;7.20;99.90;;;;;;7384364;19;20194;-75
2023/03/05 10:00:46;;;;;;;15.10;8.27;;;7.20;99.90;;;;;;7384632;19;20821;-77
2023/03/05 10:03:25;;;;;;;17.33;9.07;;;7.10;99.90;;;;;;7386230;19;20200;-76
2023/03/05 10:05:57;;;;;;;22.60;9.40;;;7.30;99.90;;;;;;7387086;19;20150;-76
2023/03/05 10:08:32;;;;;;;19.33;9.80;;;7.40;99.90;;;;;;7392219;19;20138;-74
2023/03/05 10:11:04;;;;;;;17.10;8.77;;;7.50;99.90;;;;;;7390176;19;20155;-76
2023/03/05 10:13:35;;;;;;;17.07;9.00;;;7.90;99.90;;;;;;7389001;19;20138;-75
2023/03/05 10:16:36;;;;;;;16.67;9.23;;;7.80;99.90;;;;;;7393033;19;20150;-76
2023/03/05 10:19:13;;;;;;;20.43;9.13;;;7.90;99.90;;;;;;7387304;19;20142;-76
2023/03/05 10:21:52;;;;;;;19.37;9.63;;;8.00;99.90;;;;;;7388870;19;20150;-76
2023/03/05 10:24:32;;;;;;;16.00;9.20;;;8.00;99.90;;;;;;7376688;19;20154;-76
2023/03/05 10:27:13;;;;;;;18.53;9.70;;;7.90;99.90;;;;;;7388142;19;20210;-76
2023/03/05 10:30:05;;;;;;;18.77;9.57;;;7.80;99.90;;;;;;7387993;19;20126;-75
2023/03/05 10:32:59;;;;;;;19.63;9.50;;;7.70;99.90;;;;;;7387825;19;20252;-75
2023/03/05 10:35:50;;;;;;;17.77;9.13;;;7.70;99.90;;;;;;7386232;19;20165;-75
2023/03/05 10:38:41;;;;;;;15.30;9.10;;;7.80;99.90;;;;;;7385833;19;20143;-74
2023/03/05 10:41:25;;;;;;;16.60;9.03;;;7.70;99.90;;;;;;7382255;19;20146;-75
2023/03/05 10:44:00;;;;;;;17.00;10.17;;;7.70;99.90;;;;;;7384786;19;20498;-76
2023/03/05 10:46:32;;;;;;;17.97;10.33;;;7.60;99.90;;;;;;7388668;19;20605;-76
2023/03/05 10:49:05;;;;;;;17.37;9.20;;;7.60;99.90;;;;;;7385808;19;20138;-75
2023/03/05 10:51:57;;;;;;;19.47;9.43;;;7.60;99.90;;;;;;7386477;19;20158;-76
2023/03/05 10:54:31;;;;;;;19.00;9.00;;;7.70;99.90;;;;;;7374130;19;20198;-75
2023/03/05 10:57:19;;;;;;;18.07;9.10;;;7.80;99.90;;;;;;7384576;19;20162;-75
2023/03/05 10:59:51;;;;;;;16.47;7.83;;;7.70;99.90;;;;;;7383206;19;20147;-76
2023/03/05 11:02:18;;;;;;;18.07;9.00;;;7.60;99.90;;;;;;7384751;19;20145;-75
2023/03/05 11:04:46;;;;;;;17.93;9.50;;;7.70;99.90;;;;;;7381585;19;20191;-75
2023/03/05 11:07:14;;;;;;;16.27;8.30;;;7.80;99.90;;;;;;7385401;19;20180;-75
2023/03/05 11:10:20;;;;;;;18.53;9.17;;;7.70;99.90;;;;;;7384534;19;20736;-75
2023/03/05 11:12:46;;;;;;;15.40;8.43;;;7.70;99.90;;;;;;7382090;19;20126;-74
2023/03/05 11:15:12;;;;;;;20.27;10.30;;;7.70;99.90;;;;;;7385393;19;20498;-75
2023/03/05 11:18:02;;;;;;;17.27;8.83;;;7.70;99.90;;;;;;7384388;19;20342;-75
2023/03/05 11:20:28;;;;;;;23.33;10.60;;;7.50;99.90;;;;;;7382966;19;20757;-75
2023/03/05 11:23:16;;;;;;;19.97;9.57;;;7.50;99.90;;;;;;7383203;19;20187;-76
2023/03/05 11:25:56;;;;;;;17.53;8.90;;;7.60;99.90;;;;;;7381809;19;20142;-76
2023/03/05 11:28:28;;;;;;;18.23;9.13;;;7.50;99.90;;;;;;7383015;19;20225;-76
2023/03/05 11:31:23;;;;;;;19.70;9.23;;;7.50;99.90;;;;;;7379203;19;20499;-77
2023/03/05 11:34:20;;;;;;;14.17;8.63;;;7.50;99.90;;;;;;7377701;19;20151;-76
2023/03/05 11:36:52;;;;;;;16.27;8.67;;;7.40;99.90;;;;;;7379475;19;20148;-76
2023/03/05 11:39:23;;;;;;;16.17;9.57;;;7.30;99.90;;;;;;7376840;19;20183;-75
2023/03/05 11:42:04;;;;;;;16.07;8.43;;;7.30;99.90;;;;;;7372669;19;20171;-76
2023/03/05 11:44:55;;;;;;;17.10;8.97;;;7.20;99.90;;;;;;7375067;19;20138;-75
2023/03/05 11:47:41;;;;;;;16.67;9.80;;;7.30;99.90;;;;;;7378019;19;20588;-76
2023/03/05 11:50:22;;;;;;;16.20;8.97;;;7.30;99.90;;;;;;7379924;19;20488;-76
2023/03/05 11:52:50;;;;;;;18.13;9.87;;;7.30;99.90;;;;;;7375870;19;20169;-75
2023/03/05 11:55:46;;;;;;;18.87;9.30;;;7.30;99.90;;;;;;7378099;19;20614;-75
2023/03/05 11:58:42;;;;;;;16.10;8.97;;;7.30;99.90;;;;;;7379745;19;20135;-75
2023/03/05 12:01:23;;;;;;;20.53;9.13;;;7.20;99.90;;;;;;7388863;19;20591;-75
2023/03/05 12:03:50;;;;;;;13.43;8.07;;;7.30;99.90;;;;;;7386874;19;20147;-75
2023/03/05 12:06:26;;;;;;;15.40;8.40;;;7.30;99.90;;;;;;7380421;19;20126;-76
2023/03/05 12:08:58;;;;;;;19.07;8.77;;;7.40;99.90;;;;;;7377077;19;20190;-77
2023/03/05 12:11:30;;;;;;;19.53;10.87;;;7.50;99.90;;;;;;7377842;19;20135;-76
2023/03/05 12:14:27;;;;;;;17.97;9.67;;;7.50;99.90;;;;;;7373758;19;20256;-77
2023/03/05 12:17:48;;;;;;;19.37;9.90;;;7.50;99.90;;;;;;7375777;19;20150;-76
2023/03/05 12:21:06;;;;;;;18.23;10.03;;;7.50;99.90;;;;;;7377123;19;20190;-76
2023/03/05 12:24:03;;;;;;;17.20;9.47;;;7.50;99.90;;;;;;7371636;19;20154;-76
2023/03/05 12:26:58;;;;;;;15.23;8.53;;;7.50;99.90;;;;;;7374403;19;20154;-75
2023/03/05 12:29:37;;;;;;;13.00;6.53;;;7.50;99.90;;;;;;7378460;19;20494;-75
2023/03/05 12:32:27;;;;;;;13.00;7.00;;;7.40;99.90;;;;;;7379669;19;20126;-75
2023/03/05 12:34:59;;;;;;;15.83;7.27;;;7.40;99.90;;;;;;7385539;19;20139;-75
2023/03/05 12:37:26;;;;;;;19.27;10.00;;;7.40;99.90;;;;;;7387642;19;20800;-75
2023/03/05 12:40:18;;;;;;;18.30;9.13;;;7.50;99.90;;;;;;7389249;19;20138;-75
2023/03/05 12:42:51;;;;;;;12.90;7.17;;;7.50;99.90;;;;;;7389889;19;20241;-76
2023/03/05 12:45:18;;;;;;;17.70;8.23;;;7.50;99.90;;;;;;7390480;19;20223;-75
2023/03/05 12:47:45;;;;;;;16.30;7.33;;;7.50;99.90;;;;;;7389257;19;20154;-76
2023/03/05 12:50:36;;;;;;;12.80;6.97;;;7.40;99.90;;;;;;7387831;19;20229;-76
2023/03/05 12:53:05;;;;;;;13.67;7.70;;;7.50;99.90;;;;;;7386596;19;20169;-76
2023/03/05 12:55:46;;;;;;;13.93;7.40;;;7.40;99.90;;;;;;7388240;19;20491;-75
2023/03/05 12:58:15;;;;;;;11.77;6.57;;;7.40;99.90;;;;;;7387994;19;20141;-72
2023/03/05 13:00:43;;;;;;;16.97;8.23;;;7.40;99.90;;;;;;7389382;19;20603;-76
2023/03/05 13:03:16;;;;;;;14.73;8.47;;;7.50;99.90;;;;;;7387968;19;20282;-76